Arlington, IN

5:45 PM EDT on September 01, 2015 (GMT -0400)
City of Rushville | | Change Station
CLOSE
Current Station
Personal Weather Station
Location: Rushville, IN
Elevation: 978 ft
Nearby Weather Stations

Elev 978 ft 39.62 °N, 85.43 °W | Updated 2 seconds ago

Overcast
Overcast
81.1 °F
Feels Like 86 °F
N
0.0
Wind Variable Wind from SSE
Gusts 0.0 mph

Today
High -- | Low -- °F
--% Chance of Precip.
Yesterday
High -- | Low -- °F
Precip. -- in
7:10 AM 8:13 PM
Waning Gibbous, 86% visible
Pressure 30.06 in
Visibility 10.0 miles
Clouds Scattered Clouds 4100 ft
Scattered Clouds 5500 ft
Heat Index 86 °F
Dew Point 72 °F
Humidity 75%
Rainfall 0.40 in
Snow Depth Not available.
UV 4 out of 12
Pollen 10.80 out of 12
Air Quality Not available.
Flu Activity Not available.
METAR KGEZ 012053Z AUTO 22007KT 10SM SCT041 SCT055 29/21 A3008 RMK AO2 LTG DSNT E RAE02 SLP180 P0000 60000 T02940206 58009
Pressure 30.06 in
Visibility 10.0 miles
Clouds Scattered Clouds 4100 ft
Scattered Clouds 5500 ft
Heat Index 86 °F
Dew Point 72 °F
Humidity 75%
Rainfall 0.40 in
Snow Depth Not available.
UV 4 out of 12
Pollen 10.80 out of 12
Air Quality Not available.
Flu Activity Not available.
METAR KGEZ 012053Z AUTO 22007KT 10SM SCT041 SCT055 29/21 A3008 RMK AO2 LTG DSNT E RAE02 SLP180 P0000 60000 T02940206 58009

10-Day Weather Forecast

×

Almanac

Astronomy

Sep. 01, 2015 Rise Set
Actual Time
Civil Twilight
Nautical Twilight
Astronomical Twilight
Moon
Length of Visible Light
Length of Day
Tomorrow will be .
, % of the Moon is Illuminated

Today's Extremes

State Highs State Lows

Community

WunderPhotos

Upload Photos

1,851,628 photos uploaded!

WunderBlogs® & News

Nearby

Air Quality

  Air Quality AQ Index Pollutant
Not available.

Snow Depth

Station Depth Elevation

Earthquake Activity

City Distance Mag. Time & Date
Minimum magnitude displayed is 2.5.

Coastal Water Temperatures

Place Temperature

Stations

Nearby Weather Stations

Station Location Temp. Windchill Dew Point Humidity Wind Precip. Elev Updated Type